createdAt,value
2023-03-02T00:00:56.030Z,31.600
2023-03-02T00:01:56.676Z,31.300
2023-03-02T00:02:56.658Z,31.400
2023-03-02T00:03:56.556Z,29.900
2023-03-02T00:04:56.372Z,28.700
2023-03-02T00:05:55.975Z,29.300
2023-03-02T00:06:56.572Z,31.000
2023-03-02T00:07:56.256Z,29.200
2023-03-02T00:08:55.876Z,30.700
2023-03-02T00:09:56.636Z,30.500
2023-03-02T00:10:56.278Z,30.800
2023-03-02T00:11:55.945Z,30.400
2023-03-02T00:12:56.558Z,29.900
2023-03-02T00:13:56.214Z,30.900
2023-03-02T00:14:55.977Z,29.600
2023-03-02T00:15:56.752Z,31.700
2023-03-02T00:16:56.658Z,31.200
2023-03-02T00:17:56.229Z,30.700
2023-03-02T00:18:55.814Z,32.000
2023-03-02T00:19:56.517Z,31.700
2023-03-02T00:20:56.150Z,32.500
2023-03-02T00:21:56.781Z,31.900
2023-03-02T00:22:56.354Z,31.900
2023-03-02T00:23:55.975Z,32.500
2023-03-02T00:24:56.636Z,32.700
2023-03-02T00:25:56.271Z,32.200
2023-03-02T00:26:55.895Z,32.700
2023-03-02T00:27:56.487Z,33.100
2023-03-02T00:28:56.147Z,32.600
2023-03-02T00:29:56.770Z,31.900
2023-03-02T00:30:56.498Z,32.900
2023-03-02T00:31:56.426Z,33.700
2023-03-02T00:32:56.215Z,34.300
2023-03-02T00:33:55.908Z,34.000
2023-03-02T00:34:56.614Z,34.200
2023-03-02T00:35:56.432Z,33.600
2023-03-02T00:36:57.246Z,36.300
2023-03-02T00:37:55.847Z,33.400
2023-03-02T00:38:56.525Z,35.100
2023-03-02T00:39:56.233Z,34.800
2023-03-02T00:40:56.117Z,33.900
2023-03-02T00:41:56.829Z,35.000
2023-03-02T00:42:56.505Z,34.100
2023-03-02T00:43:56.093Z,33.700
2023-03-02T00:44:56.759Z,33.800
2023-03-02T00:45:56.450Z,35.200
2023-03-02T00:46:56.443Z,33.500
2023-03-02T00:47:57.682Z,34.200
2023-03-02T00:48:56.308Z,33.600
2023-03-02T00:49:55.993Z,34.900
2023-03-02T00:50:56.657Z,32.400
2023-03-02T00:51:56.361Z,32.900
2023-03-02T00:52:55.980Z,34.300
2023-03-02T00:53:56.612Z,32.500
2023-03-02T00:54:56.280Z,31.300
2023-03-02T00:55:55.936Z,32.000
2023-03-02T00:56:55.858Z,30.600
2023-03-02T00:57:56.446Z,31.000
2023-03-02T00:58:56.088Z,30.200
2023-03-02T00:59:56.760Z,30.300
2023-03-02T01:00:56.427Z,30.900
2023-03-02T01:01:56.130Z,30.800
2023-03-02T01:02:56.347Z,29.700
2023-03-02T01:03:56.211Z,29.500
2023-03-02T01:04:55.931Z,29.800
2023-03-02T01:05:56.562Z,28.100
2023-03-02T01:06:56.189Z,29.200
2023-03-02T01:07:55.861Z,26.900
2023-03-02T01:08:56.554Z,26.900
2023-03-02T01:09:56.240Z,27.300
2023-03-02T01:10:55.870Z,27.500
2023-03-02T01:11:56.448Z,27.700
2023-03-02T01:12:56.104Z,26.600
2023-03-02T01:13:56.765Z,28.000
2023-03-02T01:14:56.441Z,28.700
2023-03-02T01:15:56.098Z,28.300
2023-03-02T01:16:56.864Z,28.500
2023-03-02T01:17:56.438Z,27.900
2023-03-02T01:18:56.189Z,26.300
2023-03-02T01:19:55.865Z,26.300
2023-03-02T01:20:56.546Z,26.700
2023-03-02T01:21:56.180Z,28.300
2023-03-02T01:22:56.768Z,27.600
2023-03-02T01:23:56.427Z,28.900
2023-03-02T01:24:56.053Z,28.500
2023-03-02T01:25:56.640Z,29.200
2023-03-02T01:26:56.270Z,28.700
2023-03-02T01:27:55.948Z,28.500
2023-03-02T01:28:56.531Z,29.700
2023-03-02T01:29:56.257Z,29.800
2023-03-02T01:30:55.930Z,30.900
2023-03-02T01:31:56.721Z,30.600
2023-03-02T01:32:56.696Z,30.300
2023-03-02T01:33:56.397Z,30.400
2023-03-02T01:34:56.077Z,31.000
2023-03-02T01:35:56.975Z,31.300
2023-03-02T01:36:56.578Z,31.500
2023-03-02T01:37:56.233Z,31.900
2023-03-02T01:38:56.165Z,32.300
2023-03-02T01:39:56.824Z,32.400
2023-03-02T01:40:56.600Z,35.300
2023-03-02T01:41:56.357Z,35.100
2023-03-02T01:42:55.980Z,34.000
2023-03-02T01:43:56.577Z,30.800
2023-03-02T01:44:56.273Z,32.400
2023-03-02T01:45:56.160Z,31.900
2023-03-02T01:46:55.968Z,32.900
2023-03-02T01:47:56.555Z,31.900
2023-03-02T01:48:56.209Z,31.800
2023-03-02T01:49:55.820Z,31.400
2023-03-02T01:50:56.431Z,30.500
2023-03-02T01:51:56.032Z,31.100
2023-03-02T01:52:56.744Z,30.500
2023-03-02T01:53:56.409Z,30.100
2023-03-02T01:54:56.007Z,29.700
2023-03-02T01:55:56.675Z,30.600
2023-03-02T01:56:56.272Z,31.900
2023-03-02T01:57:55.923Z,31.200
2023-03-02T01:58:56.736Z,30.100
2023-03-02T01:59:56.372Z,29.400
2023-03-02T02:00:56.188Z,30.000
2023-03-02T02:01:56.033Z,30.200
2023-03-02T02:02:56.641Z,29.300
2023-03-02T02:03:56.447Z,30.000
2023-03-02T02:04:56.144Z,29.300
2023-03-02T02:05:56.830Z,29.300
2023-03-02T02:06:56.473Z,29.300
2023-03-02T02:07:56.093Z,31.600
2023-03-02T02:08:56.973Z,31.300
2023-03-02T02:09:56.605Z,31.300
2023-03-02T02:10:56.309Z,30.300
2023-03-02T02:11:56.000Z,28.100
2023-03-02T02:12:56.660Z,29.400
2023-03-02T02:13:56.297Z,30.000
2023-03-02T02:14:55.956Z,31.300
2023-03-02T02:15:56.676Z,31.000
2023-03-02T02:16:56.721Z,29.900
2023-03-02T02:17:56.476Z,30.700
2023-03-02T02:18:56.155Z,30.000
2023-03-02T02:19:56.792Z,30.200
2023-03-02T02:20:56.421Z,29.200
2023-03-02T02:21:56.021Z,29.500
2023-03-02T02:22:56.655Z,28.500
2023-03-02T02:23:56.371Z,30.300
2023-03-02T02:24:56.052Z,31.000
2023-03-02T02:25:56.680Z,30.700
2023-03-02T02:26:56.308Z,28.900
2023-03-02T02:27:56.028Z,30.200
2023-03-02T02:28:56.692Z,29.600
2023-03-02T02:29:56.368Z,28.700
2023-03-02T02:30:56.049Z,31.300
2023-03-02T02:31:57.038Z,31.500
2023-03-02T02:32:57.097Z,31.700
2023-03-02T02:33:56.865Z,31.300
2023-03-02T02:34:56.857Z,30.000
2023-03-02T02:35:56.758Z,32.000
2023-03-02T02:36:56.648Z,31.500
2023-03-02T02:37:56.346Z,31.600
2023-03-02T02:38:55.990Z,31.300
2023-03-02T02:39:56.642Z,31.900
2023-03-02T02:40:56.334Z,31.200
2023-03-02T02:41:56.097Z,32.000
2023-03-02T02:42:56.850Z,31.200
2023-03-02T02:43:56.521Z,30.100
2023-03-02T02:44:56.277Z,29.900
2023-03-02T02:45:56.394Z,30.500
2023-03-02T02:46:56.222Z,30.700
2023-03-02T02:47:55.900Z,30.700
2023-03-02T02:48:56.531Z,30.000
2023-03-02T02:49:56.249Z,31.500
2023-03-02T02:50:55.940Z,31.600
2023-03-02T02:51:56.563Z,30.900
2023-03-02T02:52:56.366Z,31.700
2023-03-02T02:53:56.048Z,30.300
2023-03-02T02:54:56.717Z,31.400
2023-03-02T02:55:56.309Z,30.900
2023-03-02T02:56:55.975Z,30.000
2023-03-02T02:57:56.546Z,31.300
2023-03-02T02:58:56.172Z,31.100
2023-03-02T02:59:55.825Z,29.600
2023-03-02T03:00:56.552Z,31.500
2023-03-02T03:01:56.478Z,30.100
2023-03-02T03:02:56.254Z,29.400
2023-03-02T03:03:55.923Z,29.800
2023-03-02T03:04:56.900Z,29.300
2023-03-02T03:05:56.835Z,29.400
2023-03-02T03:06:56.557Z,29.900
2023-03-02T03:07:56.222Z,28.700
2023-03-02T03:08:55.797Z,29.500
2023-03-02T03:09:56.641Z,30.700
2023-03-02T03:10:56.678Z,29.300
2023-03-02T03:11:56.342Z,28.500
2023-03-02T03:12:56.071Z,30.100
2023-03-02T03:13:56.745Z,29.300
2023-03-02T03:14:56.387Z,28.900
2023-03-02T03:15:56.041Z,27.700
2023-03-02T03:16:56.978Z,28.400
2023-03-02T03:17:56.791Z,29.900
2023-03-02T03:18:56.548Z,27.600
2023-03-02T03:19:56.204Z,27.300
2023-03-02T03:20:55.874Z,28.100
2023-03-02T03:21:56.644Z,27.700
2023-03-02T03:22:56.409Z,28.700
2023-03-02T03:23:56.223Z,27.400
2023-03-02T03:24:55.853Z,28.100
2023-03-02T03:25:58.044Z,27.100
2023-03-02T03:26:56.629Z,27.500
2023-03-02T03:27:56.588Z,28.800
2023-03-02T03:28:56.232Z,27.800
2023-03-02T03:29:55.868Z,27.100
2023-03-02T03:30:56.847Z,26.900
2023-03-02T03:31:56.624Z,27.700
2023-03-02T03:32:56.847Z,28.300
2023-03-02T03:33:56.642Z,27.600
2023-03-02T03:34:56.405Z,27.900
2023-03-02T03:35:56.601Z,28.300
2023-03-02T03:36:56.236Z,27.800
2023-03-02T03:37:55.877Z,27.100
2023-03-02T03:38:56.517Z,27.500
2023-03-02T03:39:56.234Z,27.400
2023-03-02T03:40:55.861Z,27.400
2023-03-02T03:41:56.538Z,25.800
2023-03-02T03:42:56.226Z,26.600
2023-03-02T03:43:55.821Z,27.000
2023-03-02T03:44:56.440Z,27.800
2023-03-02T03:45:56.363Z,27.600
2023-03-02T03:46:56.057Z,27.400
2023-03-02T03:47:56.760Z,27.600
2023-03-02T03:48:56.373Z,27.300
2023-03-02T03:52:17.581Z,27.800
2023-03-02T03:53:10.627Z,27.500
2023-03-02T03:54:10.602Z,28.100
2023-03-02T03:55:10.557Z,26.800
2023-03-02T03:56:10.441Z,27.600
2023-03-02T03:57:10.378Z,28.000
2023-03-02T03:58:10.412Z,27.000
2023-03-02T03:59:10.603Z,28.000
2023-03-02T04:00:10.784Z,25.600
2023-03-02T04:01:10.877Z,25.800
2023-03-02T04:02:11.102Z,28.200
2023-03-02T04:03:10.406Z,27.100
2023-03-02T04:04:10.506Z,26.800
2023-03-02T04:05:10.498Z,27.200
2023-03-02T04:06:10.666Z,27.300
2023-03-02T04:07:10.630Z,25.900
2023-03-02T04:08:10.575Z,26.900
2023-03-02T04:09:10.481Z,28.100
2023-03-02T04:10:10.490Z,27.000
2023-03-02T04:11:10.526Z,28.000
2023-03-02T04:12:10.408Z,27.300
2023-03-02T04:13:10.443Z,31.100
2023-03-02T04:14:10.421Z,27.700
2023-03-02T04:15:10.397Z,27.800
2023-03-02T04:16:11.233Z,27.600
2023-03-02T04:17:15.178Z,27.400
2023-03-02T04:18:16.073Z,28.100
2023-03-02T04:19:13.237Z,27.800
2023-03-02T04:20:10.173Z,28.100
2023-03-02T04:21:10.145Z,28.500
2023-03-02T04:22:10.388Z,28.800
2023-03-02T04:23:10.229Z,27.600
2023-03-02T04:24:10.213Z,28.900
2023-03-02T04:25:10.163Z,27.800
2023-03-02T04:26:10.041Z,28.600
2023-03-02T04:27:10.025Z,28.300
2023-03-02T04:28:11.038Z,28.400
2023-03-02T04:29:11.050Z,29.500
2023-03-02T04:30:11.014Z,28.800
2023-03-02T04:31:11.286Z,29.200
2023-03-02T04:32:10.434Z,28.600
2023-03-02T04:33:10.522Z,29.100
2023-03-02T04:34:10.444Z,28.400
2023-03-02T04:35:10.366Z,28.100
2023-03-02T04:36:10.424Z,29.500
2023-03-02T04:37:10.847Z,29.400
2023-03-02T04:38:10.778Z,29.200
2023-03-02T04:39:10.717Z,29.800
2023-03-02T04:40:10.606Z,29.600
2023-03-02T04:41:10.602Z,30.300
2023-03-02T04:42:10.585Z,29.700
2023-03-02T04:43:10.604Z,29.500
2023-03-02T04:44:10.546Z,28.600
2023-03-02T04:45:10.585Z,28.600
2023-03-02T04:46:10.546Z,29.700
2023-03-02T04:47:10.893Z,29.600
2023-03-02T04:48:10.248Z,30.000
2023-03-02T04:49:10.178Z,29.300
2023-03-02T04:50:10.097Z,29.000
2023-03-02T04:51:10.989Z,27.900
2023-03-02T04:52:10.952Z,28.600
2023-03-02T04:53:10.866Z,29.000
2023-03-02T04:54:10.822Z,28.200
2023-03-02T04:55:10.842Z,29.000
2023-03-02T04:56:10.818Z,29.600
2023-03-02T04:57:10.782Z,29.100
2023-03-02T04:58:10.789Z,28.200
2023-03-02T04:59:10.814Z,28.200
2023-03-02T05:00:10.766Z,28.800
2023-03-02T05:01:10.720Z,26.300
2023-03-02T05:02:10.777Z,27.500
2023-03-02T05:04:10.741Z,27.800
2023-03-02T05:05:11.076Z,28.800
2023-03-02T05:06:10.090Z,29.200
2023-03-02T05:07:10.031Z,28.500
2023-03-02T05:09:11.030Z,28.700
2023-03-02T05:10:11.107Z,27.800
2023-03-02T05:11:11.037Z,28.400
2023-03-02T05:12:10.881Z,27.800
2023-03-02T05:14:10.813Z,29.000
2023-03-02T05:15:10.769Z,28.300
2023-03-02T05:16:10.795Z,27.900
2023-03-02T05:17:11.133Z,30.200
2023-03-02T05:18:10.096Z,28.300
2023-03-02T05:19:10.231Z,30.100
2023-03-02T05:20:10.373Z,28.700
2023-03-02T05:21:10.310Z,29.800
2023-03-02T05:22:10.515Z,29.700
2023-03-02T05:24:10.449Z,29.300
2023-03-02T05:25:10.686Z,28.000
2023-03-02T05:26:10.742Z,28.800
2023-03-02T05:27:10.694Z,28.600
2023-03-02T05:28:10.667Z,28.300
2023-03-02T05:29:10.580Z,29.400
2023-03-02T05:30:10.590Z,28.000
2023-03-02T05:31:10.719Z,28.400
2023-03-02T05:32:11.048Z,26.100
2023-03-02T05:33:10.282Z,28.600
2023-03-02T05:34:10.193Z,24.900
2023-03-02T05:35:10.164Z,26.100
2023-03-02T05:36:11.057Z,25.700
2023-03-02T05:37:10.922Z,23.800
2023-03-02T05:38:10.992Z,24.500
2023-03-02T05:39:10.917Z,25.800
2023-03-02T05:40:10.934Z,24.400
2023-03-02T05:41:10.890Z,24.200
2023-03-02T05:42:10.886Z,23.300
2023-03-02T05:43:10.847Z,23.700
2023-03-02T05:44:10.794Z,23.500
2023-03-02T05:45:10.771Z,23.800
2023-03-02T05:46:10.747Z,25.200
2023-03-02T05:47:11.074Z,24.500
2023-03-02T05:48:10.195Z,25.300
2023-03-02T05:49:10.137Z,24.600
2023-03-02T05:50:10.113Z,24.100
2023-03-02T05:51:11.079Z,24.100
2023-03-02T05:52:10.986Z,24.300
2023-03-02T05:53:10.933Z,23.600
2023-03-02T05:54:10.864Z,24.400
2023-03-02T05:55:13.728Z,24.400
2023-03-02T05:56:10.686Z,23.200
2023-03-02T05:57:10.642Z,23.300
2023-03-02T05:58:10.557Z,23.500
2023-03-02T05:59:10.521Z,23.900
2023-03-02T06:01:10.462Z,23.200
2023-03-02T06:02:10.808Z,23.700
2023-03-02T06:03:10.972Z,22.400
2023-03-02T06:04:10.141Z,22.800
2023-03-02T06:05:10.037Z,22.300
2023-03-02T06:06:10.913Z,23.500
2023-03-02T06:07:10.410Z,23.100
2023-03-02T06:08:10.319Z,22.300
2023-03-02T06:09:10.425Z,22.600
2023-03-02T06:10:10.416Z,21.700
2023-03-02T06:11:10.385Z,22.300
2023-03-02T06:12:10.338Z,22.500
2023-03-02T06:13:10.365Z,23.300
2023-03-02T06:14:10.370Z,23.700
2023-03-02T06:15:10.382Z,21.800
2023-03-02T06:16:10.504Z,22.900
2023-03-02T06:17:11.072Z,22.800
2023-03-02T06:18:11.018Z,23.700
2023-03-02T06:19:11.669Z,24.100
2023-03-02T06:20:10.573Z,23.900
2023-03-02T06:21:10.509Z,22.400
2023-03-02T06:23:10.489Z,25.000
2023-03-02T06:24:10.513Z,24.800
2023-03-02T06:25:10.410Z,23.300
2023-03-02T06:26:10.342Z,24.400
2023-03-02T06:27:10.668Z,24.500
2023-03-02T06:28:10.560Z,25.100
2023-03-02T06:29:15.425Z,21.100
2023-03-02T06:30:10.509Z,22.300
2023-03-02T06:31:10.383Z,21.800
2023-03-02T06:32:10.563Z,22.200
2023-03-02T06:33:10.730Z,21.900
2023-03-02T06:34:10.618Z,22.400
2023-03-02T06:35:10.754Z,22.400
2023-03-02T06:36:11.346Z,22.800
2023-03-02T06:37:10.624Z,23.000
2023-03-02T06:38:10.545Z,21.200
2023-03-02T06:39:10.534Z,23.100
2023-03-02T06:40:10.614Z,21.900
2023-03-02T06:41:10.890Z,23.700
2023-03-02T06:42:10.937Z,22.600
2023-03-02T06:43:10.973Z,22.100
2023-03-02T06:44:10.897Z,21.900
2023-03-02T06:45:10.823Z,22.000
2023-03-02T06:46:11.031Z,22.500
2023-03-02T06:47:10.079Z,22.200
2023-03-02T06:48:11.240Z,22.800
2023-03-02T06:49:10.409Z,22.400
2023-03-02T06:50:10.343Z,22.800
2023-03-02T06:51:10.277Z,22.700
2023-03-02T06:52:10.165Z,23.300
2023-03-02T06:53:10.102Z,22.200
2023-03-02T06:55:11.014Z,22.200
2023-03-02T06:56:10.957Z,23.100
2023-03-02T06:57:11.210Z,22.800
2023-03-02T06:58:10.314Z,22.700
2023-03-02T07:00:10.471Z,22.600
2023-03-02T07:01:10.624Z,23.700
2023-03-02T07:02:10.763Z,22.500
2023-03-02T07:03:10.785Z,22.300
2023-03-02T07:05:10.747Z,22.300
2023-03-02T07:06:10.911Z,22.500
2023-03-02T07:07:10.817Z,23.100
2023-03-02T07:08:10.766Z,21.200
2023-03-02T07:10:10.606Z,22.300
2023-03-02T07:11:10.596Z,22.300
2023-03-02T07:12:10.530Z,22.200
2023-03-02T07:13:10.590Z,22.200
2023-03-02T07:14:10.619Z,22.500
2023-03-02T07:15:10.653Z,21.700
2023-03-02T07:16:10.853Z,22.000
2023-03-02T07:17:11.057Z,21.800
2023-03-02T07:18:11.016Z,22.600
2023-03-02T07:19:11.033Z,21.500
2023-03-02T07:20:12.400Z,23.000
2023-03-02T07:21:10.379Z,24.300
2023-03-02T07:22:10.317Z,22.700
2023-03-02T07:23:10.258Z,21.400
2023-03-02T07:24:10.218Z,22.300
2023-03-02T07:25:10.124Z,22.900
2023-03-02T07:27:11.073Z,23.400
2023-03-02T07:28:11.010Z,21.800
2023-03-02T07:29:10.988Z,22.200
2023-03-02T07:30:10.951Z,22.500
2023-03-02T07:32:12.513Z,21.900
2023-03-02T07:33:10.912Z,21.800
2023-03-02T07:34:10.946Z,23.000
2023-03-02T07:35:10.914Z,21.300
2023-03-02T07:37:10.975Z,21.200
2023-03-02T07:38:10.998Z,20.700
2023-03-02T07:39:10.973Z,21.100
2023-03-02T07:40:10.898Z,20.900
2023-03-02T07:41:10.866Z,21.600
2023-03-02T07:42:10.772Z,21.100
2023-03-02T07:43:10.759Z,20.400
2023-03-02T07:44:10.706Z,19.700
2023-03-02T07:45:10.671Z,20.500
2023-03-02T07:46:10.682Z,20.700
2023-03-02T07:47:10.849Z,20.800
2023-03-02T07:48:10.796Z,21.600
2023-03-02T07:49:10.761Z,20.900
2023-03-02T07:50:10.700Z,21.000
2023-03-02T07:51:10.617Z,20.100
2023-03-02T07:52:10.533Z,23.500
2023-03-02T07:53:10.412Z,20.800
2023-03-02T07:54:10.345Z,21.000
2023-03-02T07:55:10.284Z,22.100
2023-03-02T07:57:10.149Z,21.300
2023-03-02T07:58:10.064Z,19.900
2023-03-02T07:59:11.105Z,21.500
2023-03-02T08:00:10.079Z,21.000
2023-03-02T08:02:11.381Z,20.800
2023-03-02T08:03:10.674Z,19.600
2023-03-02T08:04:10.851Z,21.900
2023-03-02T08:05:10.896Z,20.400
2023-03-02T08:06:10.937Z,21.400
2023-03-02T08:07:10.916Z,20.300
2023-03-02T08:08:11.081Z,20.600
2023-03-02T08:09:11.115Z,21.000
2023-03-02T08:10:11.033Z,21.000
2023-03-02T08:11:10.996Z,21.300
2023-03-02T08:12:10.991Z,21.400
2023-03-02T08:13:10.941Z,21.900
2023-03-02T08:14:10.905Z,21.300
2023-03-02T08:15:10.878Z,20.300
2023-03-02T08:16:10.964Z,19.300
2023-03-02T08:17:10.172Z,21.400
2023-03-02T08:18:10.081Z,20.100
2023-03-02T08:19:13.853Z,19.200
2023-03-02T08:20:10.889Z,19.700
2023-03-02T08:21:10.860Z,19.100
2023-03-02T08:22:11.908Z,20.200
2023-03-02T08:23:10.945Z,21.000
2023-03-02T08:24:11.069Z,20.400
2023-03-02T08:25:10.973Z,20.600
2023-03-02T08:26:13.232Z,21.300
2023-03-02T08:27:10.673Z,20.500
2023-03-02T08:28:10.805Z,20.700
2023-03-02T08:29:10.828Z,19.900
2023-03-02T08:30:10.851Z,20.100
2023-03-02T08:31:10.884Z,20.700
2023-03-02T08:32:11.413Z,20.300
2023-03-02T08:33:10.696Z,20.100
2023-03-02T08:34:10.694Z,19.300
2023-03-02T08:35:10.708Z,20.000
2023-03-02T08:36:10.924Z,20.400
2023-03-02T08:37:10.942Z,20.700
2023-03-02T08:39:10.968Z,19.800
2023-03-02T08:40:13.206Z,20.400
2023-03-02T08:41:10.242Z,20.300
2023-03-02T08:42:10.374Z,21.000
2023-03-02T08:43:10.333Z,20.600
2023-03-02T08:44:10.478Z,21.000
2023-03-02T08:45:10.587Z,20.500
2023-03-02T08:46:10.712Z,21.000
2023-03-02T08:47:10.710Z,20.900
2023-03-02T08:48:10.673Z,19.700
2023-03-02T08:49:10.722Z,19.900
2023-03-02T08:50:10.722Z,22.900
2023-03-02T08:51:10.648Z,20.200
2023-03-02T08:52:10.622Z,21.200
2023-03-02T08:53:10.594Z,21.700
2023-03-02T08:54:10.582Z,21.400
2023-03-02T08:55:10.829Z,20.100
2023-03-02T08:56:11.066Z,20.700
2023-03-02T08:57:11.253Z,20.100
2023-03-02T08:58:10.245Z,20.900
2023-03-02T08:59:10.198Z,20.800
2023-03-02T09:00:10.223Z,21.400
2023-03-02T09:01:10.331Z,20.800
2023-03-02T09:02:11.074Z,21.100
2023-03-02T09:03:11.002Z,19.200
2023-03-02T09:04:11.037Z,21.100
2023-03-02T09:05:10.554Z,20.900
2023-03-02T09:06:10.548Z,19.500
2023-03-02T09:07:10.410Z,19.200
2023-03-02T09:08:10.381Z,19.600
2023-03-02T09:09:10.360Z,20.500
2023-03-02T09:10:10.417Z,19.600
2023-03-02T09:11:10.365Z,18.800
2023-03-02T09:12:10.293Z,20.900
2023-03-02T09:13:10.256Z,19.900
2023-03-02T09:14:10.204Z,19.300
2023-03-02T09:15:10.266Z,19.000
2023-03-02T09:16:10.293Z,19.300
2023-03-02T09:17:10.693Z,19.400
2023-03-02T09:18:10.568Z,18.800
2023-03-02T09:19:10.562Z,19.800
2023-03-02T09:21:10.528Z,18.700
2023-03-02T09:22:10.457Z,19.200
2023-03-02T09:23:10.342Z,19.700
2023-03-02T09:24:10.324Z,20.000
2023-03-02T09:26:10.442Z,18.300
2023-03-02T09:27:10.401Z,19.100
2023-03-02T09:28:10.368Z,18.200
2023-03-02T09:29:10.431Z,19.000
2023-03-02T09:30:10.362Z,19.200
2023-03-02T09:31:10.362Z,18.800
2023-03-02T09:32:11.612Z,17.900
2023-03-02T09:33:11.285Z,18.800
2023-03-02T09:34:10.382Z,18.500
2023-03-02T09:35:10.359Z,18.100
2023-03-02T09:36:10.306Z,19.300
2023-03-02T09:37:10.252Z,18.300
2023-03-02T09:38:10.423Z,17.400
2023-03-02T09:39:10.514Z,17.600
2023-03-02T09:40:10.654Z,18.500
2023-03-02T09:41:10.642Z,17.400
2023-03-02T09:42:10.649Z,17.700
2023-03-02T09:43:15.502Z,17.900
2023-03-02T09:44:10.504Z,17.400
2023-03-02T09:45:10.548Z,18.200
2023-03-02T09:46:10.681Z,18.600
2023-03-02T09:47:10.713Z,17.500
2023-03-02T09:48:10.867Z,16.700
2023-03-02T09:49:10.836Z,17.000
2023-03-02T09:50:10.756Z,17.300
2023-03-02T09:51:10.621Z,17.300
2023-03-02T09:52:10.598Z,17.400
2023-03-02T09:53:10.601Z,17.000
2023-03-02T09:54:10.667Z,16.600
2023-03-02T09:55:10.717Z,17.800
2023-03-02T09:56:10.760Z,17.900
2023-03-02T09:57:10.759Z,17.000
2023-03-02T09:58:10.703Z,16.600
2023-03-02T09:59:10.704Z,16.000
2023-03-02T10:00:18.504Z,16.900
2023-03-02T10:01:10.704Z,17.000
2023-03-02T10:02:11.027Z,17.900
2023-03-02T10:03:16.903Z,16.800
2023-03-02T10:04:10.996Z,18.400
2023-03-02T10:05:10.243Z,17.000
2023-03-02T10:06:10.269Z,17.500
2023-03-02T10:07:10.191Z,16.600
2023-03-02T10:08:11.493Z,17.400
2023-03-02T10:09:10.500Z,17.200
2023-03-02T10:10:10.413Z,16.900
2023-03-02T10:11:10.474Z,17.400
2023-03-02T10:12:10.449Z,16.400
2023-03-02T10:13:10.413Z,16.700
2023-03-02T10:14:10.448Z,16.500
2023-03-02T10:15:10.543Z,16.600
2023-03-02T10:16:10.656Z,17.000
2023-03-02T10:17:11.417Z,17.700
2023-03-02T10:18:10.406Z,16.600
2023-03-02T10:19:10.621Z,17.200
2023-03-02T10:20:10.603Z,15.600
2023-03-02T10:21:10.618Z,16.300
2023-03-02T10:22:10.570Z,15.900
2023-03-02T10:23:10.575Z,15.000
2023-03-02T10:24:10.571Z,16.300
2023-03-02T10:25:10.575Z,17.200
2023-03-02T10:26:10.534Z,16.200
2023-03-02T10:27:10.505Z,16.400
2023-03-02T10:28:10.742Z,16.600
2023-03-02T10:29:10.794Z,15.900
2023-03-02T10:30:10.766Z,17.100
2023-03-02T10:31:10.929Z,17.100
2023-03-02T10:33:10.246Z,16.900
2023-03-02T10:34:10.204Z,17.800
2023-03-02T10:35:10.231Z,17.800
2023-03-02T10:36:10.647Z,17.400
2023-03-02T10:38:10.949Z,17.000
2023-03-02T10:39:10.930Z,17.800
2023-03-02T10:40:10.937Z,16.800
2023-03-02T10:41:10.889Z,17.000
2023-03-02T10:42:10.991Z,17.000
2023-03-02T10:43:11.026Z,16.900
2023-03-02T10:44:10.966Z,16.300
2023-03-02T10:45:10.945Z,17.000
2023-03-02T10:46:11.148Z,17.000
2023-03-02T10:47:10.738Z,16.600
2023-03-02T10:48:10.619Z,16.100
2023-03-02T10:49:20.926Z,16.100
2023-03-02T10:50:10.988Z,15.800
2023-03-02T10:51:11.018Z,15.700
2023-03-02T10:52:11.070Z,15.600
2023-03-02T10:53:18.657Z,16.000
2023-03-02T10:54:10.670Z,14.900
2023-03-02T10:55:10.647Z,14.400
2023-03-02T10:56:10.558Z,14.900
2023-03-02T10:57:10.558Z,15.300
2023-03-02T10:58:10.489Z,15.500
2023-03-02T10:59:12.722Z,15.000
2023-03-02T11:00:10.675Z,13.800
2023-03-02T11:01:10.710Z,14.000
2023-03-02T11:02:10.797Z,14.100
2023-03-02T11:03:10.771Z,13.200
2023-03-02T11:04:10.787Z,14.600
2023-03-02T11:05:13.687Z,14.400
2023-03-02T11:06:10.688Z,14.200
2023-03-02T11:07:10.837Z,14.300
2023-03-02T11:09:10.714Z,13.800
2023-03-02T11:10:10.654Z,14.000
2023-03-02T11:11:16.080Z,13.600
2023-03-02T11:12:10.659Z,13.600
2023-03-02T11:13:10.758Z,14.300
2023-03-02T11:14:10.737Z,13.900
2023-03-02T11:15:10.726Z,13.100
2023-03-02T11:16:10.836Z,13.800
2023-03-02T11:17:11.050Z,13.300
2023-03-02T11:18:10.096Z,13.400
2023-03-02T11:19:10.067Z,13.700
2023-03-02T11:20:11.010Z,13.200
2023-03-02T11:21:10.957Z,14.400
2023-03-02T11:22:10.950Z,13.100
2023-03-02T11:23:10.893Z,13.900
2023-03-02T11:24:10.963Z,13.900
2023-03-02T11:25:10.897Z,13.300
2023-03-02T11:26:10.846Z,13.700
2023-03-02T11:28:10.807Z,14.000
2023-03-02T11:29:10.813Z,14.400
2023-03-02T11:30:10.756Z,13.000
2023-03-02T11:31:10.889Z,13.500
2023-03-02T11:32:11.754Z,13.700
2023-03-02T11:33:11.046Z,13.900
2023-03-02T11:34:18.155Z,13.900
2023-03-02T11:35:10.504Z,12.800
2023-03-02T11:36:10.454Z,13.000
2023-03-02T11:37:10.607Z,13.200
2023-03-02T11:38:10.514Z,14.500
2023-03-02T11:39:10.444Z,13.500
2023-03-02T11:40:15.145Z,13.800
2023-03-02T11:41:10.086Z,14.300
2023-03-02T11:42:11.181Z,14.300
2023-03-02T11:43:10.390Z,13.100
2023-03-02T11:44:10.318Z,12.900
2023-03-02T11:45:10.273Z,12.900
2023-03-02T11:46:20.239Z,14.200
2023-03-02T11:48:18.520Z,12.400
2023-03-02T11:49:12.465Z,13.600
2023-03-02T11:50:12.402Z,13.300
2023-03-02T11:51:12.412Z,13.500
2023-03-02T11:52:17.332Z,14.000
2023-03-02T11:53:12.308Z,14.200
2023-03-02T11:54:12.602Z,13.200
2023-03-02T11:55:12.653Z,13.100
2023-03-02T11:56:12.748Z,12.500
2023-03-02T11:57:12.765Z,12.300
2023-03-02T11:58:13.766Z,13.400
2023-03-02T11:59:12.849Z,13.500
2023-03-02T12:00:13.087Z,12.500
2023-03-02T12:01:13.194Z,13.200
2023-03-02T12:02:12.715Z,13.200
2023-03-02T12:03:12.259Z,13.500
2023-03-02T12:04:12.270Z,13.700
2023-03-02T12:05:12.268Z,13.600
2023-03-02T12:06:12.370Z,13.100
2023-03-02T12:07:12.299Z,13.200
2023-03-02T12:08:12.250Z,12.700
2023-03-02T12:09:12.308Z,13.400
2023-03-02T12:10:12.616Z,13.200
2023-03-02T12:11:12.670Z,14.300
2023-03-02T12:12:12.694Z,13.800
2023-03-02T12:13:12.650Z,12.200
2023-03-02T12:14:12.679Z,12.300
2023-03-02T12:15:12.553Z,12.200
2023-03-02T12:16:12.472Z,12.600
2023-03-02T12:17:12.631Z,13.100
2023-03-02T12:18:12.846Z,13.400
2023-03-02T12:19:12.815Z,13.800
2023-03-02T12:20:12.846Z,12.900
2023-03-02T12:21:12.730Z,12.700
2023-03-02T12:22:12.638Z,13.400
2023-03-02T12:23:13.881Z,13.500
2023-03-02T12:24:12.839Z,13.500
2023-03-02T12:25:12.830Z,13.100
2023-03-02T12:26:12.702Z,13.500
2023-03-02T12:27:12.689Z,12.800
2023-03-02T12:28:12.744Z,13.000
2023-03-02T12:29:14.230Z,13.000
2023-03-02T12:30:12.297Z,12.800
2023-03-02T12:31:12.362Z,12.800
2023-03-02T12:32:12.875Z,12.000
2023-03-02T12:33:13.044Z,11.800
2023-03-02T12:34:12.893Z,11.500
2023-03-02T12:35:12.940Z,11.600
2023-03-02T12:36:13.022Z,10.900
2023-03-02T12:37:13.114Z,9.500
2023-03-02T12:38:13.280Z,10.500
2023-03-02T12:39:12.408Z,9.800
2023-03-02T12:40:12.365Z,10.300
2023-03-02T12:41:12.299Z,11.200
2023-03-02T12:42:12.312Z,9.900
2023-03-02T12:43:12.468Z,10.700
2023-03-02T12:44:12.640Z,10.300
2023-03-02T12:45:12.799Z,10.300
2023-03-02T12:46:13.126Z,10.700
2023-03-02T12:47:12.615Z,11.300
2023-03-02T12:48:13.142Z,11.600
2023-03-02T12:49:12.838Z,11.800
2023-03-02T12:50:12.083Z,11.900
2023-03-02T12:51:12.077Z,11.600
2023-03-02T12:52:12.665Z,11.100
2023-03-02T12:53:12.848Z,9.700
2023-03-02T12:54:12.821Z,9.200